Flight Track Log - Related Links

Times and Time Zones

All times are in EDT time to prevent confusion due to time zone crossing. See the CSH9127 flight status page for this flight to view local times or setup timezone preferences in your user account.


Time Position Orientation Groundspeed Altitude Reporting Facility
EDT Latitude Longitude Course Direction KTS MPH feet Rate Location/Type
Sat 01:22:00 AM 33.2308 119.5709 324° Northwest  Level Estimated
Sat 01:23:00 AM 33.3004 119.5087 323° Northwest  Level Estimated
Sat 01:24:00 AM 33.3699 119.4464 323° Northwest  Level Estimated
Sat 01:25:00 AM 33.4394 119.3840 323° Northwest  Level Estimated
Sat 01:26:00 AM 33.5088 119.3215 323° Northwest  Level Estimated
Sat 01:27:00 AM 33.5782 119.2589 323° Northwest  Level Estimated
Sat 01:28:00 AM 33.6476 119.1962 323° Northwest  Level Estimated
Sat 01:29:00 AM 33.7170 119.1333 323° Northwest  Level Estimated
Sat 01:30:00 AM 33.7863 119.0704 323° Northwest  Level Estimated
Sat 01:31:00 AM 33.8556 119.0074 323° Northwest  Level Estimated
Sat 01:32:00 AM 33.9248 118.9443 323° Northwest  Level Estimated
Sat 01:33:00 AM 33.9941 118.8811 323° Northwest  Level Estimated
Sat 01:34:00 AM 34.0633 118.8177 323° Northwest  Level Estimated
Sat 01:35:00 AM 34.1324 118.7543 323° Northwest  Level Estimated
Sat 01:36:00 AM 34.2016 118.6908 323° Northwest  Level Estimated
Sat 01:37:00 AM 34.2707 118.6271 323° Northwest  Level Estimated
Sat 01:38:00 AM 34.3397 118.5634 323° Northwest  Level Estimated
Sat 01:39:00 AM 34.4088 118.4995 323° Northwest  Level Estimated
Sat 01:40:00 AM 34.4778 118.4356 323° Northwest  Level Estimated
Sat 01:41:00 AM 34.5467 118.3715 323° Northwest  Level Estimated
Sat 01:42:00 AM 34.6157 118.3074 323° Northwest  Level Estimated
Sat 01:43:00 AM 34.6846 118.2431 323° Northwest  Level Estimated
Sat 01:44:00 AM 34.7534 118.1787 322° Northwest  Level Estimated
Sat 01:45:00 AM 34.8223 118.1142 322° Northwest  Level Estimated
Sat 01:46:00 AM 34.8910 118.0496 322° Northwest  Level Estimated
Sat 01:47:00 AM 34.9598 117.9849 322° Northwest  Level Estimated
Sat 01:48:00 AM 35.0285 117.9201 322° Northwest  Level Estimated
Sat 01:49:00 AM 35.0972 117.8552 322° Northwest  Level Estimated
Sat 01:50:00 AM 35.1659 117.7902 322° Northwest  Level Estimated
Sat 01:51:00 AM 35.2345 117.7250 322° Northwest  Level Estimated
Sat 01:52:00 AM 35.3031 117.6598 322° Northwest  Level Estimated
Sat 01:53:00 AM 35.3717 117.5944 322° Northwest  Level Estimated
Sat 01:54:00 AM 35.4402 117.5290 322° Northwest  Level Estimated
Sat 01:55:00 AM 35.5087 117.4634 322° Northwest  Level Estimated
Sat 01:56:00 AM 35.5771 117.3977 322° Northwest  Level Estimated
Sat 01:57:00 AM 35.6455 117.3319 322° Northwest  Level Estimated
Sat 01:58:00 AM 35.7139 117.2660 322° Northwest  Level Estimated
Sat 01:59:00 AM 35.7822 117.1999 322° Northwest  Level Estimated
Sat 02:00:00 AM 35.8505 117.1338 322° Northwest  Level Estimated
Sat 02:01:00 AM 35.9188 117.0675 322° Northwest  Level Estimated
Sat 02:02:00 AM 35.9870 117.0011 322° Northwest  Level Estimated
Sat 02:03:00 AM 36.0552 116.9346 322° Northwest  Level Estimated
Sat 02:04:00 AM 36.1234 116.8680 322° Northwest  Level Estimated
Sat 02:05:00 AM 36.1915 116.8013 322° Northwest  Level Estimated
Sat 02:06:00 AM 36.2596 116.7345 322° Northwest  Level Estimated
Sat 02:07:00 AM 36.3276 116.6675 322° Northwest  Level Estimated
Sat 02:08:00 AM 36.3956 116.6004 322° Northwest  Level Estimated
Sat 02:09:00 AM 36.4636 116.5333 322° Northwest  Level Estimated
Sat 02:10:00 AM 36.5315 116.4660 321° Northwest  Level Estimated
Sat 02:11:00 AM 36.5994 116.3985 321° Northwest  Level Estimated
Sat 02:12:00 AM 36.6673 116.3310 321° Northwest  Level Estimated
Sat 02:13:00 AM 36.7351 116.2633 321° Northwest  Level Estimated
Sat 02:14:00 AM 36.8029 116.1955 321° Northwest  Level Estimated
Sat 02:15:00 AM 36.8706 116.1276 321° Northwest  Level Estimated
Sat 02:16:00 AM 36.9383 116.0596 321° Northwest  Level Estimated
Sat 02:17:00 AM 37.0060 115.9915 321° Northwest  Level Estimated
Sat 02:18:00 AM 37.0736 115.9232 321° Northwest  Level Estimated
Sat 02:19:00 AM 37.1412 115.8548 321° Northwest  Level Estimated
Sat 02:20:00 AM 37.2088 115.7863 321° Northwest  Level Estimated
Sat 02:21:00 AM 37.2763 115.7177 321° Northwest  Level Estimated
Sat 02:22:00 AM 37.3438 115.6489 321° Northwest  Level Estimated
Sat 02:23:00 AM 37.4112 115.5800 321° Northwest  Level Estimated
Sat 02:24:00 AM 37.4786 115.5110 321° Northwest  Level Estimated
Sat 02:25:00 AM 37.5459 115.4419 321° Northwest  Level Estimated
Sat 02:26:00 AM 37.6132 115.3727 321° Northwest  Level Estimated
Sat 02:27:00 AM 37.6805 115.3033 321° Northwest  Level Estimated
Sat 02:28:00 AM 37.7477 115.2338 321° Northwest  Level Estimated
Sat 02:29:00 AM 37.8149 115.1641 321° Northwest  Level Estimated
Sat 02:30:00 AM 37.8821 115.0944 321° Northwest  Level Estimated
Sat 02:31:00 AM 37.9492 115.0245 321° Northwest  Level Estimated
Sat 02:32:00 AM 38.0162 114.9545 321° Northwest  Level Estimated
Sat 02:33:00 AM 38.0832 114.8844 321° Northwest  Level Estimated
Sat 02:34:00 AM 38.1502 114.8141 320° Northwest  Level Estimated
Sat 02:35:00 AM 38.2172 114.7437 320° Northwest  Level Estimated
Sat 02:36:00 AM 38.2841 114.6731 320° Northwest  Level Estimated
Sat 02:37:00 AM 38.3509 114.6025 320° Northwest  Level Estimated
Sat 02:38:00 AM 38.4177 114.5317 320° Northwest  Level Estimated
Sat 02:39:00 AM 38.4845 114.4608 320° Northwest  Level Estimated
Sat 02:40:00 AM 38.5512 114.3897 320° Northwest  Level Estimated
Sat 02:41:00 AM 38.6179 114.3186 320° Northwest  Level Estimated
Sat 02:42:00 AM 38.6845 114.2472 320° Northwest  Level Estimated
Sat 02:43:00 AM 38.7511 114.1758 320° Northwest  Level Estimated
Sat 02:44:00 AM 38.8177 114.1042 320° Northwest  Level Estimated
Sat 02:45:00 AM 38.8842 114.0325 320° Northwest  Level Estimated
Sat 02:46:00 AM 38.9506 113.9606 320° Northwest  Level Estimated
Sat 02:47:00 AM 39.0171 113.8886 320° Northwest  Level Estimated
Sat 02:48:00 AM 39.0834 113.8165 320° Northwest  Level Estimated
Sat 02:49:00 AM 39.1498 113.7443 320° Northwest  Level Estimated
Sat 02:50:00 AM 39.2160 113.6719 320° Northwest  Level Estimated
Sat 02:51:00 AM 39.2823 113.5993 320° Northwest  Level Estimated
Sat 02:52:00 AM 39.3485 113.5267 320° Northwest  Level Estimated
Sat 02:53:00 AM 39.4146 113.4539 320° Northwest  Level Estimated
Sat 02:54:00 AM 39.4807 113.3809 320° Northwest  Level Estimated
Sat 02:55:00 AM 39.5468 113.3079 320° Northwest  Level Estimated
Sat 02:56:00 AM 39.6128 113.2346 319° Northwest  Level Estimated
Sat 02:57:00 AM 39.6788 113.1613 319° Northwest  Level Estimated
Sat 02:58:00 AM 39.7447 113.0878 319° Northwest  Level Estimated
Sat 02:59:00 AM 39.8106 113.0141 319° Northwest  Level Estimated
Sat 03:00:00 AM 39.8764 112.9404 319° Northwest  Level Estimated
Sat 03:01:00 AM 39.9422 112.8664 319° Northwest  Level Estimated
Sat 03:02:00 AM 40.0079 112.7924 319° Northwest  Level Estimated
Sat 03:03:00 AM 40.0736 112.7181 319° Northwest  Level Estimated
Sat 03:04:00 AM 40.1392 112.6438 319° Northwest  Level Estimated
Sat 03:05:00 AM 40.2048 112.5693 319° Northwest  Level Estimated
Sat 03:06:00 AM 40.2704 112.4947 319° Northwest  Level Estimated
Sat 03:07:00 AM 40.3359 112.4199 319° Northwest  Level Estimated
Sat 03:08:00 AM 40.4013 112.3449 319° Northwest  Level Estimated
Sat 03:09:00 AM 40.4667 112.2699 319° Northwest  Level Estimated
Sat 03:10:00 AM 40.5321 112.1946 319° Northwest  Level Estimated
Sat 03:11:00 AM 40.5974 112.1193 319° Northwest  Level Estimated
Sat 03:12:00 AM 40.6626 112.0438 319° Northwest  Level Estimated
Sat 03:13:00 AM 40.7278 111.9681 319° Northwest  Level Estimated
Sat 03:14:00 AM 40.7930 111.8923 319° Northwest  Level Estimated
Sat 03:15:00 AM 40.8514 111.8241 319° Northwest  Level Estimated
Sat 03:16:00 AM 40.8514 111.8241 49° Northeast  Level Estimated
Sat 03:17:00 AM 40.8514 111.8241 49° Northeast  Level Estimated
Sat 03:18:00 AM 40.8514 111.8241 49° Northeast  Level Estimated
Sat 03:19:00 AM 40.8514 111.8241 49° Northeast  Level Estimated
Sat 03:20:00 AM 40.8514 111.8241 49° Northeast  Level Estimated
Sat 03:21:00 AM 40.8514 111.8241 49° Northeast  Level Estimated
Sat 03:22:00 AM 40.8514 111.8241 49° Northeast  Level Estimated
Sat 03:23:00 AM 40.8514 111.8241 49° Northeast  Level Estimated
Sat 03:24:00 AM 40.8514 111.8241 49° Northeast  Level Estimated
Sat 03:25:00 AM 40.8514 111.8241 49° Northeast  Level Estimated
Sat 03:26:00 AM 40.8514 111.8241 49° Northeast  Level Estimated
Sat 03:27:00 AM 40.8514 111.8241 49° Northeast  Level Estimated
Sat 03:28:00 AM 40.8514 111.8241 49° Northeast  Level Estimated
Sat 03:29:00 AM 40.8514 111.8241 49° Northeast  Level Estimated
Sat 03:30:00 AM 40.8514 111.8241 49° Northeast  Level Estimated
Sat 03:31:00 AM 40.8514 111.8241 49° Northeast  Level Estimated
Sat 03:32:00 AM 40.8514 111.8241 49° Northeast  Level Estimated
Sat 03:33:00 AM 40.8514 111.8241 49° Northeast  Level Estimated
Sat 03:34:00 AM 40.8514 111.8241 49° Northeast  Level Estimated
Sat 03:35:00 AM 40.8514 111.8241 49° Northeast  Level Estimated
Sat 03:36:00 AM 40.8514 111.8241 49° Northeast  Level Estimated
Sat 03:37:00 AM 40.8514 111.8241 49° Northeast  Level Estimated
Sat 03:38:00 AM 40.8514 111.8241 49° Northeast  Level Estimated
Sat 03:39:00 AM 40.8514 111.8241 49° Northeast  Level Estimated
Sat 03:40:00 AM 40.8514 111.8241 49° Northeast  Level Estimated
Sat 03:41:00 AM 40.8514 111.8241 49° Northeast  Level Estimated

Login

Don't have an account? Register now (free) for customized features, flight alerts, and more!